sensor_id;sensor_type;location;lat;lon;timestamp;P1;P2;P0
62981;PMS5003;49075;53.988;27.678;2024-03-17T00:04:41;55.8;46.2;31
62981;PMS5003;49075;53.988;27.678;2024-03-17T00:09:43;60;49.8;33.4
62981;PMS5003;49075;53.988;27.678;2024-03-17T00:15:23;58.5;48.3;33.3
62981;PMS5003;49075;53.988;27.678;2024-03-17T00:19:51;58.5;48.3;33.3
62981;PMS5003;49075;53.988;27.678;2024-03-17T00:24:43;60;49.5;33
62981;PMS5003;49075;53.988;27.678;2024-03-17T00:39:51;56.4;47.4;31.4
62981;PMS5003;49075;53.988;27.678;2024-03-17T00:45:13;57;47;31.7
62981;PMS5003;49075;53.988;27.678;2024-03-17T01:35:01;57;47;31.7
62981;PMS5003;49075;53.988;27.678;2024-03-17T01:39:33;61;51;32
62981;PMS5003;49075;53.988;27.678;2024-03-17T01:44:55;58.4;48.4;32
62981;PMS5003;49075;53.988;27.678;2024-03-17T01:49:45;55.5;47.3;32
62981;PMS5003;49075;53.988;27.678;2024-03-17T01:54:51;55.4;46.8;31.6
62981;PMS5003;49075;53.988;27.678;2024-03-17T01:59:33;61.4;50.6;34.2
62981;PMS5003;49075;53.988;27.678;2024-03-17T02:04:33;55.8;46.8;31.5
62981;PMS5003;49075;53.988;27.678;2024-03-17T02:14:33;54;45.5;30
62981;PMS5003;49075;53.988;27.678;2024-03-17T02:19:59;60;50;33.2
62981;PMS5003;49075;53.988;27.678;2024-03-17T02:24:33;60;50;33.2
62981;PMS5003;49075;53.988;27.678;2024-03-17T02:29:33;57.3;48;32.3
62981;PMS5003;49075;53.988;27.678;2024-03-17T02:34:33;58.6;48.2;33.2
62981;PMS5003;49075;53.988;27.678;2024-03-17T02:39:33;55.6;46.8;32.4
62981;PMS5003;49075;53.988;27.678;2024-03-17T02:44:49;60.6;50.8;33.8
62981;PMS5003;49075;53.988;27.678;2024-03-17T02:50:15;60;49.2;32.4
62981;PMS5003;49075;53.988;27.678;2024-03-17T02:54:49;60;49.2;32.4
62981;PMS5003;49075;53.988;27.678;2024-03-17T02:59:41;54.3;45.7;29.7
62981;PMS5003;49075;53.988;27.678;2024-03-17T03:04:33;58;48;33.5
62981;PMS5003;49075;53.988;27.678;2024-03-17T03:09:33;56.5;48;31.5
62981;PMS5003;49075;53.988;27.678;2024-03-17T03:14:33;58.7;48.7;33
62981;PMS5003;49075;53.988;27.678;2024-03-17T03:19:45;55;45;28.7
62981;PMS5003;49075;53.988;27.678;2024-03-17T03:24:33;60.7;49.3;33
62981;PMS5003;49075;53.988;27.678;2024-03-17T03:54:51;62;51;33
62981;PMS5003;49075;53.988;27.678;2024-03-17T04:19:33;57;48;32
62981;PMS5003;49075;53.988;27.678;2024-03-17T06:04:51;62;51;35
62981;PMS5003;49075;53.988;27.678;2024-03-17T06:09:33;67.8;55.3;36.5
62981;PMS5003;49075;53.988;27.678;2024-03-17T06:14:51;61.2;50.6;33.8
62981;PMS5003;49075;53.988;27.678;2024-03-17T06:19:41;67.6;54.6;35.8
62981;PMS5003;49075;53.988;27.678;2024-03-17T06:24:53;66.5;54;35.8
62981;PMS5003;49075;53.988;27.678;2024-03-17T06:29:53;66.6;54.4;35.8
62981;PMS5003;49075;53.988;27.678;2024-03-17T06:35:11;69;55;36.6
62981;PMS5003;49075;53.988;27.678;2024-03-17T06:44:33;69;55;36.6
62981;PMS5003;49075;53.988;27.678;2024-03-17T06:49:33;70.5;57;37
62981;PMS5003;49075;53.988;27.678;2024-03-17T06:55:03;67.5;55.5;36.5
62981;PMS5003;49075;53.988;27.678;2024-03-17T06:59:33;69.4;56;37.2
62981;PMS5003;49075;53.988;27.678;2024-03-17T07:04:35;68.3;56.3;36.3
62981;PMS5003;49075;53.988;27.678;2024-03-17T07:14:33;64;52;33
62981;PMS5003;49075;53.988;27.678;2024-03-17T07:19:51;71.2;56.8;37.8
62981;PMS5003;49075;53.988;27.678;2024-03-17T07:24:33;63.2;51.4;34.4
62981;PMS5003;49075;53.988;27.678;2024-03-17T07:39:51;67.8;54.6;36
62981;PMS5003;49075;53.988;27.678;2024-03-17T07:44:53;66.3;54.7;37.3
62981;PMS5003;49075;53.988;27.678;2024-03-17T07:49:33;64.7;52.3;35.7
62981;PMS5003;49075;53.988;27.678;2024-03-17T07:55:19;61.6;50.6;33.6
62981;PMS5003;49075;53.988;27.678;2024-03-17T08:49:51;61.6;50.6;33.6
62981;PMS5003;49075;53.988;27.678;2024-03-17T08:54:33;23;23;19
62981;PMS5003;49075;53.988;27.678;2024-03-17T09:05:05;24.7;24.7;19
62981;PMS5003;49075;53.988;27.678;2024-03-17T09:15:19;23.5;20.5;18
62981;PMS5003;49075;53.988;27.678;2024-03-17T09:19:33;23.5;20.5;18
62981;PMS5003;49075;53.988;27.678;2024-03-17T09:24:59;18.8;18.8;15.5
62981;PMS5003;49075;53.988;27.678;2024-03-17T09:29:33;21.5;21.5;19
62981;PMS5003;49075;53.988;27.678;2024-03-17T09:34:33;19;19;16.4
62981;PMS5003;49075;53.988;27.678;2024-03-17T09:39:41;20.8;20.6;18
62981;PMS5003;49075;53.988;27.678;2024-03-17T09:44:41;20.2;20.2;17.8
62981;PMS5003;49075;53.988;27.678;2024-03-17T09:49:50;18.7;18.7;16.3
62981;PMS5003;49075;53.988;27.678;2024-03-17T09:54:33;19.2;19.2;17.4
62981;PMS5003;49075;53.988;27.678;2024-03-17T09:59:49;19.8;19.8;17.8
62981;PMS5003;49075;53.988;27.678;2024-03-17T10:04:51;22;21.6;18.4
62981;PMS5003;49075;53.988;27.678;2024-03-17T10:15:11;24;23.6;19.6
62981;PMS5003;49075;53.988;27.678;2024-03-17T10:19:51;24;23.6;19.6
62981;PMS5003;49075;53.988;27.678;2024-03-17T10:24:33;20.2;20.2;17.2
62981;PMS5003;49075;53.988;27.678;2024-03-17T10:29:43;23.3;22.5;19
62981;PMS5003;49075;53.988;27.678;2024-03-17T10:34:39;32;31;23.2
62981;PMS5003;49075;53.988;27.678;2024-03-17T10:39:33;23.4;23.2;19.6
62981;PMS5003;49075;53.988;27.678;2024-03-17T10:44:47;23.3;22.7;19.3
62981;PMS5003;49075;53.988;27.678;2024-03-17T10:55:09;31.3;31;22
62981;PMS5003;49075;53.988;27.678;2024-03-17T10:59:36;31.3;31;22
62981;PMS5003;49075;53.988;27.678;2024-03-17T11:05:00;29;28;22.7
62981;PMS5003;49075;53.988;27.678;2024-03-17T11:09:59;32.3;32;23
62981;PMS5003;49075;53.988;27.678;2024-03-17T11:14:49;25.2;24.4;20.2
62981;PMS5003;49075;53.988;27.678;2024-03-17T11:19:46;21.5;21.5;16.8
62981;PMS5003;49075;53.988;27.678;2024-03-17T11:24:53;23.3;22.7;18.7
62981;PMS5003;49075;53.988;27.678;2024-03-17T11:29:41;30;29.6;22.2
62981;PMS5003;49075;53.988;27.678;2024-03-17T11:34:49;25.2;25.2;21.2
62981;PMS5003;49075;53.988;27.678;2024-03-17T11:39:52;21.2;21.2;18.6
62981;PMS5003;49075;53.988;27.678;2024-03-17T11:44:59;28.8;27.8;21
62981;PMS5003;49075;53.988;27.678;2024-03-17T11:49:34;27.8;27.4;21
62981;PMS5003;49075;53.988;27.678;2024-03-17T11:59:34;34;34;24
62981;PMS5003;49075;53.988;27.678;2024-03-17T12:05:02;29;29;23
62981;PMS5003;49075;53.988;27.678;2024-03-17T12:09:47;25.4;25.2;21
62981;PMS5003;49075;53.988;27.678;2024-03-17T12:19:34;27;27;20
62981;PMS5003;49075;53.988;27.678;2024-03-17T12:24:52;22.2;22.2;19.8
62981;PMS5003;49075;53.988;27.678;2024-03-17T12:29:34;21.8;21.8;18.8
62981;PMS5003;49075;53.988;27.678;2024-03-17T12:35:04;20.8;20.8;17.4
62981;PMS5003;49075;53.988;27.678;2024-03-17T12:39:41;22.8;22.5;17.8
62981;PMS5003;49075;53.988;27.678;2024-03-17T12:45:09;23.4;23.4;18.8
62981;PMS5003;49075;53.988;27.678;2024-03-17T12:50:10;23;23;20
62981;PMS5003;49075;53.988;27.678;2024-03-17T12:55:20;20.2;20;17
62981;PMS5003;49075;53.988;27.678;2024-03-17T12:59:42;20.2;20;17
62981;PMS5003;49075;53.988;27.678;2024-03-17T13:04:33;17.6;17;14.8
62981;PMS5003;49075;53.988;27.678;2024-03-17T13:10:10;19;18.2;15.2
62981;PMS5003;49075;53.988;27.678;2024-03-17T13:14:45;19;18.2;15.2
62981;PMS5003;49075;53.988;27.678;2024-03-17T13:19:34;19.8;19.8;17.2
62981;PMS5003;49075;53.988;27.678;2024-03-17T13:24:41;23.4;23;18.4
62981;PMS5003;49075;53.988;27.678;2024-03-17T13:30:02;22.8;22.6;18.6
62981;PMS5003;49075;53.988;27.678;2024-03-17T13:34:34;17.8;17.8;16.2
62981;PMS5003;49075;53.988;27.678;2024-03-17T13:39:34;23.6;23.6;18.4
62981;PMS5003;49075;53.988;27.678;2024-03-17T14:19:34;23;23;17
62981;PMS5003;49075;53.988;27.678;2024-03-17T14:24:58;16;15.7;13.7
62981;PMS5003;49075;53.988;27.678;2024-03-17T14:39:52;29;27;20
62981;PMS5003;49075;53.988;27.678;2024-03-17T15:24:34;25.5;24;18
62981;PMS5003;49075;53.988;27.678;2024-03-17T15:49:34;23;23;21
62981;PMS5003;49075;53.988;27.678;2024-03-17T15:55:12;29;29;22
62981;PMS5003;49075;53.988;27.678;2024-03-17T15:59:50;29;29;22
62981;PMS5003;49075;53.988;27.678;2024-03-17T16:09:34;18.5;18.5;15.5
62981;PMS5003;49075;53.988;27.678;2024-03-17T16:14:34;20.7;20.3;18
62981;PMS5003;49075;53.988;27.678;2024-03-17T16:19:34;20.4;20.4;17.6
62981;PMS5003;49075;53.988;27.678;2024-03-17T16:24:46;22.8;22.4;18.8
62981;PMS5003;49075;53.988;27.678;2024-03-17T16:29:34;23.2;22.8;19.6
62981;PMS5003;49075;53.988;27.678;2024-03-17T16:34:46;23.4;23;20
62981;PMS5003;49075;53.988;27.678;2024-03-17T16:39:50;20.6;19.8;17.6
62981;PMS5003;49075;53.988;27.678;2024-03-17T16:44:44;25;24.4;19.8
62981;PMS5003;49075;53.988;27.678;2024-03-17T16:49:50;23.6;23.6;19.4
62981;PMS5003;49075;53.988;27.678;2024-03-17T16:55:08;24.2;23.4;18.8
62981;PMS5003;49075;53.988;27.678;2024-03-17T16:59:34;24.2;23.4;18.8
62981;PMS5003;49075;53.988;27.678;2024-03-17T17:04:34;25;24.4;20.2
62981;PMS5003;49075;53.988;27.678;2024-03-17T17:09:34;22.8;22.3;17.5
62981;PMS5003;49075;53.988;27.678;2024-03-17T17:14:58;24;23.6;19.6
62981;PMS5003;49075;53.988;27.678;2024-03-17T17:19:42;29;28.4;22.6
62981;PMS5003;49075;53.988;27.678;2024-03-17T17:24:46;24.5;24.3;20.8
62981;PMS5003;49075;53.988;27.678;2024-03-17T17:29:42;23;22;18.2
62981;PMS5003;49075;53.988;27.678;2024-03-17T17:34:58;27.2;26.4;20.8
62981;PMS5003;49075;53.988;27.678;2024-03-17T17:39:42;31.7;30.7;23
62981;PMS5003;49075;53.988;27.678;2024-03-17T17:44:34;25.8;25.6;19.8
62981;PMS5003;49075;53.988;27.678;2024-03-17T17:49:58;25.5;25.3;21
62981;PMS5003;49075;53.988;27.678;2024-03-17T17:55:12;28.3;27.7;22
62981;PMS5003;49075;53.988;27.678;2024-03-17T17:59:34;28.3;27.7;22
62981;PMS5003;49075;53.988;27.678;2024-03-17T18:05:04;25.6;25.6;19.4
62981;PMS5003;49075;53.988;27.678;2024-03-17T18:10:02;23;23;18.8
62981;PMS5003;49075;53.988;27.678;2024-03-17T18:14:34;27;25.5;19
62981;PMS5003;49075;53.988;27.678;2024-03-17T18:19:34;27.5;26;21
62981;PMS5003;49075;53.988;27.678;2024-03-17T18:24:50;27;27;21.6
62981;PMS5003;49075;53.988;27.678;2024-03-17T18:29:34;25;24.8;20.4
62981;PMS5003;49075;53.988;27.678;2024-03-17T18:34:50;23.3;23.3;19.3
62981;PMS5003;49075;53.988;27.678;2024-03-17T18:39:34;28;28;22.3
62981;PMS5003;49075;53.988;27.678;2024-03-17T18:44:34;25.4;25.4;20.6
62981;PMS5003;49075;53.988;27.678;2024-03-17T18:49:34;23.3;22.3;19.3
62981;PMS5003;49075;53.988;27.678;2024-03-17T18:55:04;17.2;17;13.2
62981;PMS5003;49075;53.988;27.678;2024-03-17T19:00:04;31.7;30.3;23
62981;PMS5003;49075;53.988;27.678;2024-03-17T19:04:34;32;29.3;23.3
62981;PMS5003;49075;53.988;27.678;2024-03-17T19:09:42;38.8;35.3;25.3
62981;PMS5003;49075;53.988;27.678;2024-03-17T19:14:42;28;28;21.3
62981;PMS5003;49075;53.988;27.678;2024-03-17T19:19:42;24;23.3;19.8
62981;PMS5003;49075;53.988;27.678;2024-03-17T19:24:58;19.2;19.2;16.4
62981;PMS5003;49075;53.988;27.678;2024-03-17T19:29:34;21.8;21;18.3
62981;PMS5003;49075;53.988;27.678;2024-03-17T19:34:54;23.3;23.3;20
62981;PMS5003;49075;53.988;27.678;2024-03-17T19:39:54;23.8;23.8;19.6
62981;PMS5003;49075;53.988;27.678;2024-03-17T19:44:46;19.2;19.2;17.4
62981;PMS5003;49075;53.988;27.678;2024-03-17T19:49:54;20.8;20.6;16.6
62981;PMS5003;49075;53.988;27.678;2024-03-17T19:55:02;21.4;21.2;18.4
62981;PMS5003;49075;53.988;27.678;2024-03-17T19:59:50;23.8;23;19.2
62981;PMS5003;49075;53.988;27.678;2024-03-17T20:04:46;23.2;23.2;19.2
62981;PMS5003;49075;53.988;27.678;2024-03-17T20:09:58;23.6;23.4;19.8
62981;PMS5003;49075;53.988;27.678;2024-03-17T20:14:36;19;19;17.7
62981;PMS5003;49075;53.988;27.678;2024-03-17T20:19:42;23;22.8;18.2
62981;PMS5003;49075;53.988;27.678;2024-03-17T20:24:46;20.2;20.2;17.4
62981;PMS5003;49075;53.988;27.678;2024-03-17T20:29:34;20.8;20.2;17.4
62981;PMS5003;49075;53.988;27.678;2024-03-17T20:34:44;28;26.8;21
62981;PMS5003;49075;53.988;27.678;2024-03-17T20:39:34;22;21.6;18.6
62981;PMS5003;49075;53.988;27.678;2024-03-17T20:44:46;25.5;25.5;20.8
62981;PMS5003;49075;53.988;27.678;2024-03-17T20:49:42;18.4;18.4;15.2
62981;PMS5003;49075;53.988;27.678;2024-03-17T20:54:34;16.4;16.4;14.4
62981;PMS5003;49075;53.988;27.678;2024-03-17T20:59:34;19.8;19.6;16.6
62981;PMS5003;49075;53.988;27.678;2024-03-17T21:04:50;24.4;24.4;18.6
62981;PMS5003;49075;53.988;27.678;2024-03-17T21:09:46;25.3;24.5;20
62981;PMS5003;49075;53.988;27.678;2024-03-17T21:14:54;19.6;19.2;15.8
62981;PMS5003;49075;53.988;27.678;2024-03-17T21:19:46;23.4;23.4;19.6
62981;PMS5003;49075;53.988;27.678;2024-03-17T21:24:34;20.4;20.4;16.6
62981;PMS5003;49075;53.988;27.678;2024-03-17T21:30:12;19.2;18.8;16.8
62981;PMS5003;49075;53.988;27.678;2024-03-17T21:34:50;19.2;18.8;16.8
62981;PMS5003;49075;53.988;27.678;2024-03-17T21:39:34;24.4;23.8;20.4
62981;PMS5003;49075;53.988;27.678;2024-03-17T21:44:58;25.6;25.2;21
62981;PMS5003;49075;53.988;27.678;2024-03-17T21:49:34;22.4;22;19.2
62981;PMS5003;49075;53.988;27.678;2024-03-17T21:55:08;20.2;20.2;18.2
62981;PMS5003;49075;53.988;27.678;2024-03-17T22:00:00;20.2;20.2;18.2
62981;PMS5003;49075;53.988;27.678;2024-03-17T22:04:50;24.5;24.5;19.3
62981;PMS5003;49075;53.988;27.678;2024-03-17T22:09:42;22;21.8;18
62981;PMS5003;49075;53.988;27.678;2024-03-17T22:14:34;27.8;27.8;22.8
62981;PMS5003;49075;53.988;27.678;2024-03-17T22:19:42;21.4;21.2;16.4
62981;PMS5003;49075;53.988;27.678;2024-03-17T22:24:34;21.4;20.6;18
62981;PMS5003;49075;53.988;27.678;2024-03-17T22:29:34;21.2;21.2;18.4
62981;PMS5003;49075;53.988;27.678;2024-03-17T22:34:34;20.2;20.2;18
62981;PMS5003;49075;53.988;27.678;2024-03-17T22:39:50;22.8;22.8;19.4
62981;PMS5003;49075;53.988;27.678;2024-03-17T22:44:42;19.8;19.6;17
62981;PMS5003;49075;53.988;27.678;2024-03-17T22:49:34;20.6;19.6;17.8
62981;PMS5003;49075;53.988;27.678;2024-03-17T22:54:34;22.4;21.2;18.2
62981;PMS5003;49075;53.988;27.678;2024-03-17T22:59:54;22;21.8;18.2
62981;PMS5003;49075;53.988;27.678;2024-03-17T23:04:42;20.4;19.8;16
62981;PMS5003;49075;53.988;27.678;2024-03-17T23:09:52;22.8;22.8;18.8
62981;PMS5003;49075;53.988;27.678;2024-03-17T23:14:34;20.6;20.2;16.8
62981;PMS5003;49075;53.988;27.678;2024-03-17T23:20:08;21;21;18.4
62981;PMS5003;49075;53.988;27.678;2024-03-17T23:24:42;21;21;18.4
62981;PMS5003;49075;53.988;27.678;2024-03-17T23:29:58;24.6;24;19.2
62981;PMS5003;49075;53.988;27.678;2024-03-17T23:34:56;24.2;23.6;19.8
62981;PMS5003;49075;53.988;27.678;2024-03-17T23:39:59;19.6;19.4;16.8
62981;PMS5003;49075;53.988;27.678;2024-03-17T23:45:06;22.4;22;17.8
62981;PMS5003;49075;53.988;27.678;2024-03-17T23:49:34;22.4;22;17.8
62981;PMS5003;49075;53.988;27.678;2024-03-17T23:54:34;16.6;16.2;14.2
62981;PMS5003;49075;53.988;27.678;2024-03-17T23:59:44;22.8;22.6;20.4
